Woodbine, NJ (08270)

1:38 PM EST on February 01, 2015 (GMT -0500)
Eldora | Change Station
CLOSE
Current Station
Personal Weather Station
Location: Woodbine, NJ
Elevation: 15 ft
Nearby Weather Stations

Elev 15 ft 39.21 °N, 74.91 °W | Updated 39 seconds ago

Overcast
Overcast
35.9 °F
Feels Like 33 °F
N
4.0
Wind Variable Wind from SSW
Gusts 6.0 mph

Today
High -- | Low -- °F
--% Chance of Precip.
Yesterday
High -- | Low -- °F
Precip. -- in
7:06 AM 5:19 PM
Waxing Gibbous, 96% visible
Pressure 30.19 in
Visibility 10.0 miles
Clouds Overcast 4600 ft
Windchill 33 °F
Dew Point 26 °F
Humidity 66%
Rainfall 0.00 in
Snow Depth Not available.
UV 1.0 out of 12
Pollen .10 out of 12
Air Quality Not available.
Flu Activity Not available.
METAR KMIV 011754Z AUTO 28007G15KT 10SM OVC046 04/M07 A3019 RMK AO2 SLP221 T00441067 10050 21078 58029

More Conditions Fewer Conditions

Pressure 30.19 in
Visibility 10.0 miles
Clouds Overcast 4600 ft
Windchill 33 °F
Dew Point 26 °F
Humidity 66%
Rainfall 0.00 in
Snow Depth Not available.
UV 1.0 out of 12
Pollen .10 out of 12
Air Quality Not available.
Flu Activity Not available.
METAR KMIV 011754Z AUTO 28007G15KT 10SM OVC046 04/M07 A3019 RMK AO2 SLP221 T00441067 10050 21078 58029

More Conditions Fewer Conditions

10-Day Weather Forecast

Almanac

Astronomy

Feb. 01, 2015 Rise Set
Actual Time
Civil Twilight
Nautical Twilight
Astronomical Twilight
Moon
Length of Visible Light
Length of Day
Tomorrow will be .
, % of the Moon is Illuminated

Today's Extremes

State Highs State Lows

Community

WunderPhotos

Upload Photos

1,792,434 photos uploaded!

WunderBlogs® & News

Nearby

Air Quality

  Air Quality AQ Index Pollutant
Not available.

Snow Depth

Station Depth Elevation

Earthquake Activity

City Distance Mag. Time & Date
Minimum magnitude displayed is 2.5.

Coastal Water Temperatures

Place Temperature

Nearby Weather Stations